Ferndale, MI (48220)

8:19 AM EDT on August 30, 2015 (GMT -0400)
11 Mile and Dequindre | | Change Station
CLOSE
Current Station
Personal Weather Station
Location: Warren, MI
Elevation: 636 ft
Nearby Weather Stations

Elev 636 ft 42.49 °N, 83.08 °W | Updated 1 minute ago

Overcast
Overcast
68.7 °F
Feels Like 68.7 °F
N
0.0
Wind Variable Wind from East

Today
High -- | Low -- °F
--% Chance of Precip.
Yesterday
High -- | Low -- °F
Precip. -- in
6:55 AM 8:10 PM
Full, 99% visible
Pressure 30.09 in
Visibility 3.0 miles
Clouds Overcast 600 ft
Dew Point 68 °F
Humidity 96%
Rainfall 0.00 in
Snow Depth Not available.
UV 0 out of 12
Pollen 7.80 out of 12
Air Quality Not available.
Flu Activity Not available.
METAR KVLL 301215Z AUTO 00000KT 3SM BR OVC006 20/19 A3009 RMK AO2 T02000193
Pressure 30.09 in
Visibility 3.0 miles
Clouds Overcast 600 ft
Dew Point 68 °F
Humidity 96%
Rainfall 0.00 in
Snow Depth Not available.
UV 0 out of 12
Pollen 7.80 out of 12
Air Quality Not available.
Flu Activity Not available.
METAR KVLL 301215Z AUTO 00000KT 3SM BR OVC006 20/19 A3009 RMK AO2 T02000193

10-Day Weather Forecast

×

Almanac

Astronomy

Aug. 30, 2015 Rise Set
Actual Time
Civil Twilight
Nautical Twilight
Astronomical Twilight
Moon
Length of Visible Light
Length of Day
Tomorrow will be .
, % of the Moon is Illuminated

Today's Extremes

State Highs State Lows

Community

WunderPhotos

Upload Photos

1,850,936 photos uploaded!

WunderBlogs® & News

Nearby

Air Quality

  Air Quality AQ Index Pollutant
Not available.

Snow Depth

Station Depth Elevation

Earthquake Activity

City Distance Mag. Time & Date
Minimum magnitude displayed is 2.5.

Coastal Water Temperatures

Place Temperature

Stations

Nearby Weather Stations

Station Location Temp. Windchill Dew Point Humidity Wind Precip. Elev Updated Type